createdAt,value
2022-10-01T00:01:18.389Z,3.90
2022-10-01T00:03:47.955Z,3.60
2022-10-01T00:06:19.097Z,4.57
2022-10-01T00:08:49.490Z,3.85
2022-10-01T00:11:23.510Z,2.65
2022-10-01T00:13:50.589Z,3.75
2022-10-01T00:16:18.994Z,4.47
2022-10-01T00:18:46.397Z,2.97
2022-10-01T00:21:14.059Z,2.85
2022-10-01T00:23:40.982Z,2.30
2022-10-01T00:26:08.243Z,5.30
2022-10-01T00:28:34.829Z,2.85
2022-10-01T00:31:01.443Z,4.07
2022-10-01T00:33:28.279Z,3.15
2022-10-01T00:35:54.989Z,3.35
2022-10-01T00:38:21.585Z,3.60
2022-10-01T00:40:48.169Z,3.92
2022-10-01T00:43:21.985Z,2.13
2022-10-01T00:46:01.424Z,4.95
2022-10-01T00:48:30.643Z,3.15
2022-10-01T00:50:57.457Z,5.47
2022-10-01T00:53:24.644Z,3.70
2022-10-01T00:55:54.234Z,3.90
2022-10-01T00:58:21.957Z,3.42
2022-10-01T01:00:53.966Z,3.78
2022-10-01T01:03:23.452Z,2.20
2022-10-01T01:05:50.690Z,4.97
2022-10-01T01:08:17.820Z,1.42
2022-10-01T01:10:44.407Z,4.60
2022-10-01T01:13:10.885Z,3.17
2022-10-01T01:16:00.429Z,3.05
2022-10-01T01:18:48.111Z,3.63
2022-10-01T01:21:17.433Z,2.35
2022-10-01T01:24:02.753Z,3.85
2022-10-01T01:26:48.268Z,3.25
2022-10-01T01:29:21.698Z,2.03
2022-10-01T01:31:48.784Z,2.00
2022-10-01T01:34:27.808Z,2.28
2022-10-01T01:36:58.592Z,3.85
2022-10-01T01:39:26.738Z,3.28
2022-10-01T01:42:05.262Z,2.33
2022-10-01T01:44:36.354Z,1.83
2022-10-01T01:47:06.102Z,2.33
2022-10-01T01:49:33.264Z,2.95
2022-10-01T01:52:04.303Z,2.08
2022-10-01T01:54:30.970Z,2.42
2022-10-01T01:56:58.286Z,2.33
2022-10-01T01:59:26.019Z,2.20
2022-10-01T02:01:52.747Z,1.92
2022-10-01T02:04:22.225Z,2.38
2022-10-01T02:07:07.315Z,1.98
2022-10-01T02:09:47.248Z,5.75
2022-10-01T02:12:34.086Z,5.80
2022-10-01T02:15:19.546Z,4.68
2022-10-01T02:17:59.473Z,1.63
2022-10-01T02:20:50.311Z,2.33
2022-10-01T02:23:22.449Z,2.20
2022-10-01T02:25:51.346Z,2.38
2022-10-01T02:28:21.064Z,2.55
2022-10-01T02:30:48.725Z,2.15
2022-10-01T02:33:17.179Z,2.25
2022-10-01T02:35:45.129Z,2.13
2022-10-01T02:38:12.679Z,3.78
2022-10-01T02:40:40.920Z,1.92
2022-10-01T02:43:11.134Z,1.92
2022-10-01T02:45:39.334Z,1.80
2022-10-01T02:48:11.109Z,1.70
2022-10-01T02:50:43.869Z,1.65
2022-10-01T02:53:22.237Z,2.00
2022-10-01T02:55:50.120Z,1.08
2022-10-01T02:58:18.239Z,2.25
2022-10-01T03:00:47.160Z,2.65
2022-10-01T03:03:13.714Z,2.67
2022-10-01T03:05:40.279Z,2.50
2022-10-01T03:08:07.087Z,1.92
2022-10-01T03:10:34.801Z,1.25
2022-10-01T03:13:01.877Z,1.67
2022-10-01T03:15:28.629Z,1.92
2022-10-01T03:17:55.244Z,2.03
2022-10-01T03:20:22.423Z,1.77
2022-10-01T03:22:49.178Z,2.90
2022-10-01T03:25:16.074Z,1.75
2022-10-01T03:27:43.132Z,3.17
2022-10-01T03:30:10.078Z,1.65
2022-10-01T03:32:36.822Z,2.38
2022-10-01T03:35:03.552Z,2.65
2022-10-01T03:37:30.030Z,2.10
2022-10-01T03:39:56.704Z,1.27
2022-10-01T03:42:23.290Z,3.00
2022-10-01T03:44:49.824Z,1.00
2022-10-01T03:47:16.549Z,2.00
2022-10-01T03:49:43.108Z,1.85
2022-10-01T03:52:09.598Z,2.65
2022-10-01T03:54:36.182Z,1.25
2022-10-01T03:57:03.060Z,1.67
2022-10-01T03:59:29.823Z,1.38
2022-10-01T04:01:56.463Z,1.30
2022-10-01T04:04:23.139Z,2.85
2022-10-01T04:06:49.798Z,0.82
2022-10-01T04:09:16.338Z,2.03
2022-10-01T04:11:43.003Z,1.33
2022-10-01T04:14:09.628Z,1.70
2022-10-01T04:16:36.411Z,1.10
2022-10-01T04:19:03.827Z,1.92
2022-10-01T04:21:33.063Z,0.82
2022-10-01T04:24:00.321Z,1.17
2022-10-01T04:26:27.095Z,0.95
2022-10-01T04:28:53.688Z,1.35
2022-10-01T04:31:26.362Z,1.88
2022-10-01T04:33:54.017Z,0.98
2022-10-01T04:36:20.938Z,3.78
2022-10-01T04:38:47.547Z,2.33
2022-10-01T04:41:14.885Z,1.58
2022-10-01T04:43:41.457Z,2.63
2022-10-01T04:46:08.074Z,0.82
2022-10-01T04:48:34.690Z,1.13
2022-10-01T04:51:01.233Z,2.70
2022-10-01T04:53:27.931Z,1.48
2022-10-01T04:55:54.462Z,1.15
2022-10-01T04:58:20.935Z,2.75
2022-10-01T05:00:48.376Z,1.73
2022-10-01T05:03:15.015Z,1.50
2022-10-01T05:05:41.699Z,1.02
2022-10-01T05:08:08.318Z,1.02
2022-10-01T05:10:35.537Z,2.17
2022-10-01T05:13:02.335Z,1.58
2022-10-01T05:15:29.637Z,3.78
2022-10-01T05:17:56.320Z,1.63
2022-10-01T05:20:24.277Z,0.98
2022-10-01T05:22:50.830Z,1.30
2022-10-01T05:25:18.005Z,0.95
2022-10-01T05:27:44.954Z,0.90
2022-10-01T05:30:12.305Z,0.65
2022-10-01T05:32:39.166Z,2.33
2022-10-01T05:35:07.226Z,1.02
2022-10-01T05:37:34.517Z,2.13
2022-10-01T05:40:01.700Z,1.73
2022-10-01T05:42:28.567Z,0.70
2022-10-01T05:44:56.105Z,1.92
2022-10-01T05:47:23.285Z,2.78
2022-10-01T05:49:49.974Z,3.15
2022-10-01T05:52:16.796Z,0.50
2022-10-01T05:54:43.384Z,1.95
2022-10-01T05:57:10.653Z,1.88
2022-10-01T05:59:37.215Z,2.35
2022-10-01T06:02:04.352Z,1.23
2022-10-01T06:04:31.072Z,0.88
2022-10-01T06:06:57.701Z,0.85
2022-10-01T06:09:24.574Z,0.95
2022-10-01T06:11:51.228Z,3.30
2022-10-01T06:14:17.837Z,1.45
2022-10-01T06:16:44.685Z,0.70
2022-10-01T06:19:11.335Z,1.20
2022-10-01T06:21:38.113Z,3.00
2022-10-01T06:24:05.263Z,0.60
2022-10-01T06:26:32.075Z,1.58
2022-10-01T06:28:58.765Z,2.25
2022-10-01T06:31:25.521Z,1.60
2022-10-01T06:33:52.077Z,2.05
2022-10-01T06:36:18.732Z,0.90
2022-10-01T06:38:47.883Z,1.25
2022-10-01T06:41:14.380Z,0.73
2022-10-01T06:43:40.971Z,1.67
2022-10-01T06:46:07.593Z,1.80
2022-10-01T06:48:36.398Z,2.88
2022-10-01T06:51:03.141Z,3.65
2022-10-01T06:53:29.824Z,0.90
2022-10-01T06:55:59.023Z,1.92
2022-10-01T06:58:28.224Z,1.55
2022-10-01T07:00:59.195Z,1.73
2022-10-01T07:03:25.825Z,0.75
2022-10-01T07:05:52.300Z,2.15
2022-10-01T07:08:19.114Z,1.73
2022-10-01T07:10:45.787Z,2.15
2022-10-01T07:13:16.673Z,1.55
2022-10-01T07:15:43.692Z,1.58
2022-10-01T07:18:10.754Z,1.23
2022-10-01T07:20:39.874Z,2.63
2022-10-01T07:23:07.910Z,1.73
2022-10-01T07:25:34.470Z,1.45
2022-10-01T07:28:02.465Z,1.27
2022-10-01T07:30:29.491Z,4.43
2022-10-01T07:32:55.985Z,1.50
2022-10-01T07:35:22.731Z,3.72
2022-10-01T07:37:50.188Z,2.75
2022-10-01T07:40:17.763Z,1.23
2022-10-01T07:42:51.873Z,1.83
2022-10-01T07:45:18.583Z,1.00
2022-10-01T07:47:51.359Z,1.10
2022-10-01T07:50:17.851Z,2.88
2022-10-01T07:52:44.438Z,1.33
2022-10-01T07:55:14.126Z,5.55
2022-10-01T07:57:41.455Z,1.85
2022-10-01T08:00:08.571Z,1.40
2022-10-01T08:02:38.593Z,2.25
2022-10-01T08:05:31.579Z,0.93
2022-10-01T08:08:02.271Z,1.60
2022-10-01T08:10:29.691Z,6.22
2022-10-01T08:12:59.350Z,5.00
2022-10-01T08:15:25.884Z,5.82
2022-10-01T08:17:52.466Z,6.50
2022-10-01T08:20:21.501Z,5.68
2022-10-01T08:22:48.058Z,8.45
2022-10-01T08:25:14.744Z,6.18
2022-10-01T08:27:41.341Z,15.00
2022-10-01T08:30:08.167Z,25.00
2022-10-01T08:32:37.201Z,29.23
2022-10-01T08:35:04.928Z,29.63
2022-10-01T08:37:31.527Z,28.42
2022-10-01T08:39:58.056Z,36.67
2022-10-01T08:42:45.787Z,36.55
2022-10-01T08:45:32.021Z,29.02
2022-10-01T08:47:58.676Z,28.85
2022-10-01T08:50:48.420Z,26.60
2022-10-01T08:53:18.697Z,25.63
2022-10-01T08:55:47.065Z,26.25
2022-10-01T08:58:17.558Z,25.85
2022-10-01T09:00:45.257Z,29.85
2022-10-01T09:03:13.103Z,23.85
2022-10-01T09:05:40.194Z,27.58
2022-10-01T09:08:16.492Z,24.55
2022-10-01T09:10:45.688Z,30.10
2022-10-01T09:13:23.322Z,19.88
2022-10-01T09:15:56.309Z,18.85
2022-10-01T09:18:43.125Z,22.80
2022-10-01T09:21:16.692Z,18.80
2022-10-01T09:23:47.751Z,22.60
2022-10-01T09:26:14.504Z,18.83
2022-10-01T09:28:41.500Z,24.63
2022-10-01T09:31:17.526Z,12.35
2022-10-01T09:34:04.465Z,16.83
2022-10-01T09:36:39.634Z,21.20
2022-10-01T09:39:12.489Z,16.60
2022-10-01T09:41:39.082Z,22.95
2022-10-01T09:44:06.356Z,17.45
2022-10-01T09:46:33.636Z,13.82
2022-10-01T09:49:22.963Z,20.85
2022-10-01T09:51:51.606Z,14.25
2022-10-01T09:54:23.066Z,15.90
2022-10-01T09:56:53.637Z,11.57
2022-10-01T09:59:39.005Z,19.70
2022-10-01T10:02:15.228Z,14.27
2022-10-01T10:04:42.598Z,18.42
2022-10-01T10:07:15.589Z,15.60
2022-10-01T10:09:43.319Z,13.55
2022-10-01T10:12:24.418Z,13.15
2022-10-01T10:14:51.292Z,19.15
2022-10-01T10:17:17.925Z,13.70
2022-10-01T10:19:51.961Z,12.98
2022-10-01T10:22:23.354Z,17.35
2022-10-01T10:24:49.938Z,17.45
2022-10-01T10:27:36.286Z,11.68
2022-10-01T10:30:05.058Z,13.63
2022-10-01T10:32:31.854Z,14.60
2022-10-01T10:35:03.690Z,11.65
2022-10-01T10:37:31.701Z,15.80
2022-10-01T10:39:58.542Z,19.25
2022-10-01T10:42:25.959Z,10.90
2022-10-01T10:45:03.872Z,14.25
2022-10-01T10:47:31.603Z,13.25
2022-10-01T10:50:00.281Z,17.00
2022-10-01T10:52:30.077Z,14.30
2022-10-01T10:55:00.858Z,10.88
2022-10-01T10:57:34.584Z,14.95
2022-10-01T11:00:02.369Z,15.23
2022-10-01T11:02:33.215Z,9.77
2022-10-01T11:05:04.816Z,8.43
2022-10-01T11:07:31.803Z,14.38
2022-10-01T11:10:17.324Z,12.73
2022-10-01T11:12:59.122Z,11.30
2022-10-01T11:15:41.932Z,14.70
2022-10-01T11:18:27.073Z,11.63
2022-10-01T11:21:09.908Z,12.45
2022-10-01T11:23:37.635Z,11.52
2022-10-01T11:26:19.150Z,9.93
2022-10-01T11:28:51.904Z,8.68
2022-10-01T11:31:18.551Z,13.43
2022-10-01T11:33:58.474Z,9.05
2022-10-01T11:36:43.599Z,12.48
2022-10-01T11:39:16.481Z,12.93
2022-10-01T11:41:46.098Z,9.65
2022-10-01T11:44:28.181Z,12.23
2022-10-01T11:47:26.970Z,11.52
2022-10-01T11:49:56.182Z,11.07
2022-10-01T11:52:23.512Z,11.43
2022-10-01T11:54:56.657Z,10.13
2022-10-01T11:57:41.982Z,11.57
2022-10-01T12:00:10.832Z,9.82
2022-10-01T12:02:47.554Z,13.48
2022-10-01T12:05:21.828Z,8.00
2022-10-01T12:07:57.846Z,8.45
2022-10-01T12:10:30.568Z,8.88
2022-10-01T12:12:57.183Z,10.63
2022-10-01T12:15:30.482Z,8.63
2022-10-01T12:18:00.121Z,7.10
2022-10-01T12:20:26.725Z,9.15
2022-10-01T12:22:56.266Z,6.88
2022-10-01T12:25:26.667Z,6.22
2022-10-01T12:28:06.563Z,8.48
2022-10-01T12:30:38.535Z,8.82
2022-10-01T12:33:05.018Z,7.65
2022-10-01T12:35:35.388Z,10.25
2022-10-01T12:38:10.995Z,8.48
2022-10-01T12:40:44.064Z,8.27
2022-10-01T12:43:16.139Z,6.72
2022-10-01T12:46:02.542Z,7.20
2022-10-01T12:48:29.688Z,9.70
2022-10-01T12:50:56.552Z,8.73
2022-10-01T12:53:37.103Z,7.90
2022-10-01T12:56:13.592Z,8.98
2022-10-01T12:58:49.771Z,11.35
2022-10-01T13:01:19.053Z,10.52
2022-10-01T13:03:48.764Z,6.35
2022-10-01T13:06:34.654Z,8.68
2022-10-01T13:09:01.349Z,7.30
2022-10-01T13:11:27.880Z,10.15
2022-10-01T13:13:55.586Z,7.90
2022-10-01T13:16:37.054Z,7.32
2022-10-01T13:19:04.101Z,7.85
2022-10-01T13:21:32.359Z,9.77
2022-10-01T13:24:04.290Z,8.07
2022-10-01T13:26:57.792Z,10.10
2022-10-01T13:29:30.988Z,11.65
2022-10-01T13:32:01.720Z,8.65
2022-10-01T13:34:38.982Z,7.65
2022-10-01T13:37:14.601Z,9.02
2022-10-01T13:39:43.416Z,9.13
2022-10-01T13:42:23.140Z,7.03
2022-10-01T13:44:53.617Z,7.55
2022-10-01T13:47:20.864Z,8.75
2022-10-01T13:49:58.809Z,8.73
2022-10-01T13:52:25.334Z,7.30
2022-10-01T13:54:53.879Z,5.68
2022-10-01T13:57:36.765Z,10.35
2022-10-01T14:00:15.540Z,7.47
2022-10-01T14:02:57.513Z,7.32
2022-10-01T14:05:27.518Z,7.70
2022-10-01T14:07:57.964Z,5.68
2022-10-01T14:10:31.633Z,8.20
2022-10-01T14:13:21.492Z,4.97
2022-10-01T14:16:02.085Z,6.00
2022-10-01T14:18:39.229Z,6.47
2022-10-01T14:21:05.782Z,4.53
2022-10-01T14:23:36.614Z,6.15
2022-10-01T14:26:06.123Z,6.05
2022-10-01T14:28:32.595Z,7.90
2022-10-01T14:31:06.524Z,7.30
2022-10-01T14:33:54.083Z,4.50
2022-10-01T14:36:29.657Z,8.15
2022-10-01T14:39:03.391Z,6.13
2022-10-01T14:41:33.725Z,6.03
2022-10-01T14:44:00.922Z,5.53
2022-10-01T14:46:27.483Z,5.80
2022-10-01T14:48:58.671Z,8.27
2022-10-01T14:51:29.495Z,6.40
2022-10-01T14:53:57.595Z,7.65
2022-10-01T14:56:24.484Z,5.85
2022-10-01T14:58:54.654Z,4.90
2022-10-01T15:01:22.391Z,6.35
2022-10-01T15:03:49.706Z,4.78
2022-10-01T15:06:18.325Z,7.63
2022-10-01T15:08:47.755Z,5.68
2022-10-01T15:11:19.656Z,4.68
2022-10-01T15:13:48.293Z,6.65
2022-10-01T15:16:16.601Z,5.80
2022-10-01T15:18:53.351Z,5.57
2022-10-01T15:21:22.943Z,7.70
2022-10-01T15:23:49.625Z,4.65
2022-10-01T15:26:20.029Z,6.82
2022-10-01T15:28:46.633Z,7.03
2022-10-01T15:31:13.476Z,5.25
2022-10-01T15:33:41.080Z,9.32
2022-10-01T15:36:12.437Z,4.22
2022-10-01T15:38:41.240Z,6.43
2022-10-01T15:41:30.974Z,6.75
2022-10-01T15:43:59.890Z,7.63
2022-10-01T15:46:35.983Z,7.28
2022-10-01T15:49:12.012Z,8.23
2022-10-01T15:51:44.470Z,6.28
2022-10-01T15:54:12.184Z,4.30
2022-10-01T15:56:42.205Z,4.35
2022-10-01T16:04:32.672Z,6.22
2022-10-01T16:06:59.274Z,6.93
2022-10-01T16:09:28.504Z,8.43
2022-10-01T16:11:59.552Z,8.60
2022-10-01T16:14:42.756Z,7.07
2022-10-01T16:17:18.824Z,4.72
2022-10-01T16:19:53.071Z,7.97
2022-10-01T16:22:24.420Z,4.47
2022-10-01T16:24:58.205Z,5.93
2022-10-01T16:27:34.471Z,3.80
2022-10-01T16:30:05.509Z,9.02
2022-10-01T16:32:32.919Z,8.32
2022-10-01T16:35:17.786Z,4.45
2022-10-01T16:37:45.503Z,4.60
2022-10-01T16:40:15.974Z,4.72
2022-10-01T16:42:44.294Z,4.35
2022-10-01T16:45:18.519Z,7.65
2022-10-01T16:47:45.510Z,4.20
2022-10-01T16:50:15.943Z,7.65
2022-10-01T16:52:42.806Z,5.82
2022-10-01T16:55:22.767Z,4.50
2022-10-01T16:57:49.923Z,5.10
2022-10-01T17:00:17.771Z,7.40
2022-10-01T17:02:45.020Z,6.03
2022-10-01T17:05:25.477Z,5.07
2022-10-01T17:07:55.058Z,5.55
2022-10-01T17:10:22.623Z,4.95
2022-10-01T17:12:49.134Z,4.97
2022-10-01T17:15:17.510Z,4.63
2022-10-01T17:17:45.202Z,6.07
2022-10-01T17:20:11.923Z,8.88
2022-10-01T17:22:39.189Z,7.57
2022-10-01T17:25:07.156Z,4.88
2022-10-01T17:27:33.744Z,4.75
2022-10-01T17:30:00.284Z,5.75
2022-10-01T17:32:26.863Z,5.47
2022-10-01T17:34:54.430Z,4.55
2022-10-01T17:37:23.852Z,4.82
2022-10-01T17:39:50.466Z,4.95
2022-10-01T17:42:18.223Z,5.50
2022-10-01T17:44:44.943Z,3.42
2022-10-01T17:47:11.452Z,6.25
2022-10-01T17:49:38.106Z,5.95
2022-10-01T17:52:05.768Z,4.63
2022-10-01T17:54:33.275Z,3.30
2022-10-01T17:57:00.029Z,4.65
2022-10-01T17:59:26.663Z,3.10
2022-10-01T18:01:54.497Z,4.70
2022-10-01T18:04:21.139Z,4.38
2022-10-01T18:06:49.109Z,4.45
2022-10-01T18:09:15.867Z,4.63
2022-10-01T18:11:42.499Z,3.58
2022-10-01T18:14:09.169Z,5.28
2022-10-01T18:16:36.272Z,3.20
2022-10-01T18:21:51.164Z,3.75
2022-10-01T18:24:17.887Z,7.05
2022-10-01T18:26:45.666Z,4.00
2022-10-01T18:29:19.608Z,4.47
2022-10-01T18:31:46.439Z,3.47
2022-10-01T18:34:20.621Z,4.60
2022-10-01T18:36:53.125Z,3.55
2022-10-01T18:39:22.672Z,5.15
2022-10-01T18:41:49.488Z,3.22
2022-10-01T18:44:20.245Z,6.25
2022-10-01T18:46:52.713Z,2.72
2022-10-01T18:49:19.357Z,5.95
2022-10-01T18:52:04.567Z,3.40
2022-10-01T18:54:43.348Z,4.53
2022-10-01T18:57:28.569Z,4.82
2022-10-01T18:59:57.847Z,5.63
2022-10-01T19:02:26.972Z,3.92
2022-10-01T19:05:12.006Z,4.63
2022-10-01T19:07:55.522Z,3.33
2022-10-01T19:10:24.886Z,6.90
2022-10-01T19:12:57.347Z,4.65
2022-10-01T19:15:40.701Z,5.22
2022-10-01T19:18:28.499Z,3.30
2022-10-01T19:21:15.889Z,5.90
2022-10-01T19:23:57.823Z,5.78
2022-10-01T19:26:33.712Z,2.38
2022-10-01T19:29:09.785Z,3.60
2022-10-01T19:31:52.781Z,4.07
2022-10-01T19:34:25.619Z,4.00
2022-10-01T19:36:55.126Z,3.22
2022-10-01T19:39:23.531Z,5.35
2022-10-01T19:42:13.605Z,5.63
2022-10-01T19:44:44.709Z,3.67
2022-10-01T19:47:20.083Z,5.53
2022-10-01T19:49:50.428Z,5.35
2022-10-01T19:52:18.442Z,6.57
2022-10-01T19:54:48.621Z,5.10
2022-10-01T19:57:18.171Z,6.85
2022-10-01T19:59:44.895Z,4.40
2022-10-01T20:02:28.766Z,4.80
2022-10-01T20:04:58.073Z,6.25
2022-10-01T20:07:28.564Z,5.57
2022-10-01T20:10:12.783Z,13.73
2022-10-01T20:12:39.392Z,4.70
2022-10-01T20:15:09.003Z,6.97
2022-10-01T20:17:41.437Z,5.63
2022-10-01T20:20:23.473Z,4.03
2022-10-01T20:23:09.361Z,5.10
2022-10-01T20:25:54.830Z,5.60
2022-10-01T20:28:31.280Z,5.47
2022-10-01T20:31:05.213Z,5.00
2022-10-01T20:36:01.432Z,6.05
2022-10-01T20:38:30.662Z,5.53
2022-10-01T20:40:58.313Z,4.97
2022-10-01T20:43:33.715Z,5.40
2022-10-01T20:46:06.196Z,6.32
2022-10-01T20:48:36.963Z,5.88
2022-10-01T20:51:06.829Z,7.57
2022-10-01T20:53:40.147Z,5.40
2022-10-01T20:56:10.054Z,2.80
2022-10-01T20:58:55.125Z,5.45
2022-10-01T21:01:23.980Z,6.13
2022-10-01T21:04:09.749Z,8.27
2022-10-01T21:06:39.191Z,11.57
2022-10-01T21:09:08.997Z,9.15
2022-10-01T21:11:41.697Z,8.38
2022-10-01T21:14:20.205Z,7.93
2022-10-01T21:16:46.931Z,8.38
2022-10-01T21:19:23.442Z,4.43
2022-10-01T21:21:55.261Z,5.18
2022-10-01T21:24:33.794Z,7.95
2022-10-01T21:27:06.240Z,13.18
2022-10-01T21:29:34.025Z,5.30
2022-10-01T21:32:12.626Z,9.13
2022-10-01T21:34:52.545Z,5.50
2022-10-01T21:37:26.995Z,7.05
2022-10-01T21:40:06.986Z,6.15
2022-10-01T21:42:42.805Z,9.35
2022-10-01T21:45:36.539Z,6.45
2022-10-01T21:48:03.565Z,8.00
2022-10-01T21:50:35.400Z,9.63
2022-10-01T21:53:07.869Z,5.18
2022-10-01T21:55:53.012Z,7.10
2022-10-01T21:58:58.325Z,9.13
2022-10-01T22:01:35.388Z,7.93
2022-10-01T22:04:07.352Z,6.38
2022-10-01T22:06:45.364Z,9.63
2022-10-01T22:09:14.735Z,8.93
2022-10-01T22:11:46.304Z,6.45
2022-10-01T22:14:14.329Z,7.82
2022-10-01T22:16:43.062Z,6.35
2022-10-01T22:19:15.375Z,6.85
2022-10-01T22:21:47.012Z,5.20
2022-10-01T22:24:21.863Z,8.63
2022-10-01T22:26:54.586Z,10.57
2022-10-01T22:29:23.631Z,12.05
2022-10-01T22:31:53.754Z,6.75
2022-10-01T22:34:22.630Z,7.85
2022-10-01T22:36:51.082Z,11.57
2022-10-01T22:39:25.053Z,6.70
2022-10-01T22:41:56.004Z,6.85
2022-10-01T22:44:23.310Z,8.00
2022-10-01T22:46:53.760Z,10.52
2022-10-01T22:49:44.953Z,5.20
2022-10-01T22:52:11.493Z,9.52
2022-10-01T22:54:37.963Z,9.60
2022-10-01T22:57:04.913Z,9.70
2022-10-01T22:59:46.476Z,11.65
2022-10-01T23:02:15.902Z,10.68
2022-10-01T23:04:45.534Z,6.85
2022-10-01T23:07:15.922Z,10.25
2022-10-01T23:09:50.751Z,8.10
2022-10-01T23:12:33.419Z,8.55
2022-10-01T23:15:22.505Z,6.78
2022-10-01T23:17:56.645Z,7.22
2022-10-01T23:22:57.968Z,8.43
2022-10-01T23:25:25.828Z,9.23
2022-10-01T23:27:52.631Z,7.32
2022-10-01T23:30:20.125Z,10.05
2022-10-01T23:32:56.109Z,8.32
2022-10-01T23:35:31.580Z,10.13
2022-10-01T23:38:16.720Z,11.70
2022-10-01T23:40:45.031Z,16.58
2022-10-01T23:43:30.101Z,8.30
2022-10-01T23:46:05.994Z,10.27
2022-10-01T23:48:44.577Z,8.60
2022-10-01T23:51:14.168Z,12.15
2022-10-01T23:53:44.121Z,10.80
2022-10-01T23:56:45.660Z,12.90
2022-10-01T23:59:26.547Z,11.15
